createdAt,value
2023-01-29T00:00:30.137Z,4.50
2023-01-29T00:04:33.185Z,4.50
2023-01-29T00:08:37.530Z,4.50
2023-01-29T00:12:40.367Z,4.50
2023-01-29T00:16:43.486Z,4.50
2023-01-29T00:20:46.472Z,4.50
2023-01-29T00:24:49.174Z,4.50
2023-01-29T00:28:51.951Z,4.50
2023-01-29T00:32:54.907Z,4.50
2023-01-29T00:37:05.005Z,4.50
2023-01-29T00:41:27.080Z,4.50
2023-01-29T00:45:30.470Z,4.50
2023-01-29T00:49:33.331Z,4.50
2023-01-29T00:53:42.611Z,4.50
2023-01-29T00:57:45.724Z,4.50
2023-01-29T01:02:23.801Z,4.50
2023-01-29T01:06:26.680Z,4.50
2023-01-29T01:10:32.309Z,4.50
2023-01-29T01:14:37.847Z,4.50
2023-01-29T01:18:41.477Z,4.50
2023-01-29T01:22:44.492Z,4.50
2023-01-29T01:26:47.229Z,4.50
2023-01-29T01:30:50.171Z,4.50
2023-01-29T01:34:53.795Z,4.50
2023-01-29T01:38:56.792Z,4.40
2023-01-29T01:43:01.533Z,4.40
2023-01-29T01:47:04.416Z,4.40
2023-01-29T01:51:07.405Z,4.40
2023-01-29T01:55:13.373Z,4.50
2023-01-29T01:59:18.218Z,4.40
2023-01-29T02:03:42.871Z,4.50
2023-01-29T02:08:08.979Z,4.50
2023-01-29T02:12:14.250Z,4.50
2023-01-29T02:16:17.093Z,4.50
2023-01-29T02:20:26.690Z,4.50
2023-01-29T02:25:10.072Z,4.50
2023-01-29T02:29:27.254Z,4.50
2023-01-29T02:33:41.144Z,4.50
2023-01-29T02:38:09.516Z,4.50
2023-01-29T02:42:35.899Z,4.50
2023-01-29T02:47:00.438Z,4.50
2023-01-29T02:51:14.225Z,4.50
2023-01-29T02:55:23.280Z,4.60
2023-01-29T02:59:33.206Z,4.50
2023-01-29T03:03:46.973Z,4.60
2023-01-29T03:07:56.745Z,4.60
2023-01-29T03:12:28.717Z,4.60
2023-01-29T03:16:51.161Z,4.60
2023-01-29T03:21:27.398Z,4.60
2023-01-29T03:25:49.342Z,4.60
2023-01-29T03:30:14.946Z,4.50
2023-01-29T03:34:34.846Z,4.50
2023-01-29T03:38:38.557Z,4.50
2023-01-29T03:43:08.475Z,4.50
2023-01-29T03:47:18.617Z,4.50
2023-01-29T03:52:00.241Z,4.50
2023-01-29T03:56:03.771Z,4.50
2023-01-29T04:00:21.536Z,4.50
2023-01-29T04:04:36.995Z,4.40
2023-01-29T04:08:50.539Z,4.40
2023-01-29T04:13:06.312Z,4.30
2023-01-29T04:17:20.653Z,4.30
2023-01-29T04:21:39.713Z,4.30
2023-01-29T04:25:47.629Z,4.30
2023-01-29T04:30:14.992Z,4.20
2023-01-29T04:35:01.530Z,4.20
2023-01-29T04:39:06.062Z,4.20
2023-01-29T04:43:48.040Z,4.10
2023-01-29T04:48:13.093Z,4.10
2023-01-29T04:52:42.474Z,4.20
2023-01-29T04:57:01.296Z,4.20
2023-01-29T05:01:06.869Z,4.20
2023-01-29T05:05:11.582Z,4.20
2023-01-29T05:09:17.531Z,4.20
2023-01-29T05:13:23.015Z,4.20
2023-01-29T05:17:25.863Z,4.20
2023-01-29T05:21:28.656Z,4.20
2023-01-29T05:25:33.745Z,4.20
2023-01-29T05:29:36.785Z,4.20
2023-01-29T05:33:39.567Z,4.30
2023-01-29T05:37:42.576Z,4.20
2023-01-29T05:41:45.444Z,4.20
2023-01-29T05:45:59.726Z,4.20
2023-01-29T05:50:02.797Z,4.20
2023-01-29T05:54:05.767Z,4.20
2023-01-29T05:58:08.779Z,4.20
2023-01-29T06:02:11.768Z,4.20
2023-01-29T06:06:15.337Z,4.20
2023-01-29T06:10:19.389Z,4.20
2023-01-29T06:14:22.489Z,4.20
2023-01-29T06:18:25.760Z,4.20
2023-01-29T06:22:28.772Z,4.30
2023-01-29T06:26:31.557Z,4.20
2023-01-29T06:30:34.454Z,4.20
2023-01-29T06:34:39.456Z,4.20
2023-01-29T06:38:42.300Z,4.20
2023-01-29T06:42:46.176Z,4.20
2023-01-29T06:46:49.007Z,4.30
2023-01-29T06:50:55.163Z,4.30
2023-01-29T06:54:58.057Z,4.30
2023-01-29T06:59:00.996Z,4.30
2023-01-29T07:03:04.510Z,4.40
2023-01-29T07:07:13.626Z,4.40
2023-01-29T07:11:16.539Z,4.40
2023-01-29T07:15:21.345Z,4.50
2023-01-29T07:19:24.062Z,4.50
2023-01-29T07:23:27.287Z,4.50
2023-01-29T07:27:30.223Z,4.50
2023-01-29T07:31:33.546Z,4.50
2023-01-29T07:35:39.476Z,4.50
2023-01-29T07:39:42.348Z,4.50
2023-01-29T07:43:45.116Z,4.60
2023-01-29T07:47:53.923Z,4.70
2023-01-29T07:51:56.777Z,4.80
2023-01-29T07:55:59.748Z,5.00
2023-01-29T08:00:02.703Z,5.10
2023-01-29T08:04:15.484Z,5.20
2023-01-29T08:08:19.497Z,5.40
2023-01-29T08:12:22.296Z,5.50
2023-01-29T08:16:25.374Z,5.60
2023-01-29T08:20:28.561Z,5.80
2023-01-29T08:24:41.756Z,5.90
2023-01-29T08:28:54.261Z,6.00
2023-01-29T08:32:57.186Z,6.10
2023-01-29T08:37:00.121Z,6.30
2023-01-29T08:41:03.504Z,6.50
2023-01-29T08:45:06.941Z,6.60
2023-01-29T08:49:09.910Z,6.70
2023-01-29T08:53:12.951Z,6.90
2023-01-29T08:57:15.920Z,7.00
2023-01-29T09:01:18.809Z,7.10
2023-01-29T09:05:21.539Z,7.10
2023-01-29T09:09:24.448Z,7.20
2023-01-29T09:13:27.307Z,7.30
2023-01-29T09:17:30.025Z,7.30
2023-01-29T09:21:32.704Z,7.30
2023-01-29T09:25:36.069Z,7.50
2023-01-29T09:29:39.146Z,7.60
2023-01-29T09:33:42.095Z,7.80
2023-01-29T09:37:48.572Z,7.90
2023-01-29T09:42:04.575Z,7.90
2023-01-29T09:46:32.239Z,8.00
2023-01-29T09:50:40.227Z,8.10
2023-01-29T09:54:52.066Z,8.10
2023-01-29T09:59:00.641Z,8.30
2023-01-29T10:03:15.647Z,8.50
2023-01-29T10:07:21.857Z,8.60
2023-01-29T10:11:46.484Z,8.70
2023-01-29T10:16:02.222Z,8.80
2023-01-29T10:20:20.653Z,8.70
2023-01-29T10:24:35.351Z,8.80
2023-01-29T10:28:46.746Z,8.90
2023-01-29T10:32:50.699Z,8.90
2023-01-29T10:36:57.144Z,8.90
2023-01-29T10:41:17.650Z,8.80
2023-01-29T10:45:45.549Z,8.90
2023-01-29T10:50:36.023Z,9.10
2023-01-29T10:55:11.049Z,9.30
2023-01-29T10:59:26.535Z,9.50
2023-01-29T11:03:31.834Z,9.60
2023-01-29T11:07:34.867Z,9.60
2023-01-29T11:11:46.223Z,9.50
2023-01-29T11:15:52.785Z,9.60
2023-01-29T11:19:56.036Z,9.70
2023-01-29T11:24:17.807Z,9.80
2023-01-29T11:28:44.518Z,9.90
2023-01-29T11:32:52.753Z,10.00
2023-01-29T11:37:01.216Z,10.00
2023-01-29T11:41:18.364Z,9.80
2023-01-29T11:45:32.798Z,9.80
2023-01-29T11:49:36.026Z,9.70
2023-01-29T11:53:43.223Z,9.90
2023-01-29T11:58:12.415Z,10.10
2023-01-29T12:02:28.050Z,10.30
2023-01-29T12:06:42.906Z,10.10
2023-01-29T12:10:45.850Z,10.00
2023-01-29T12:15:04.765Z,9.80
2023-01-29T12:19:55.794Z,9.60
2023-01-29T12:24:25.244Z,9.50
2023-01-29T12:28:49.809Z,9.40
2023-01-29T12:33:05.178Z,9.30
2023-01-29T12:37:33.782Z,9.40
2023-01-29T12:41:39.770Z,9.40
2023-01-29T12:45:44.839Z,9.30
2023-01-29T12:49:53.159Z,9.40
2023-01-29T12:54:10.548Z,9.40
2023-01-29T12:58:22.739Z,9.60
2023-01-29T13:02:44.785Z,9.60
2023-01-29T13:06:55.578Z,9.90
2023-01-29T13:11:02.163Z,9.90
2023-01-29T13:15:20.923Z,9.80
2023-01-29T13:19:41.070Z,9.60
2023-01-29T13:23:51.520Z,9.40
2023-01-29T13:27:54.479Z,9.50
2023-01-29T13:31:59.760Z,9.50
2023-01-29T13:36:02.787Z,9.40
2023-01-29T13:40:07.596Z,9.30
2023-01-29T13:44:32.394Z,9.40
2023-01-29T13:48:52.465Z,9.30
2023-01-29T13:53:02.259Z,9.30
2023-01-29T13:57:05.150Z,9.20
2023-01-29T14:01:08.023Z,9.10
2023-01-29T14:05:31.214Z,8.90
2023-01-29T14:09:37.042Z,8.70
2023-01-29T14:13:42.029Z,8.80
2023-01-29T14:18:00.048Z,8.90
2023-01-29T14:22:02.976Z,8.90
2023-01-29T14:26:20.046Z,8.90
2023-01-29T14:30:24.163Z,8.70
2023-01-29T14:34:44.159Z,8.40
2023-01-29T14:38:52.558Z,8.20
2023-01-29T14:43:04.085Z,8.30
2023-01-29T14:47:27.011Z,8.40
2023-01-29T14:51:36.795Z,8.40
2023-01-29T14:55:45.565Z,8.40
2023-01-29T15:00:21.435Z,8.50
2023-01-29T15:04:29.066Z,8.40
2023-01-29T15:08:44.044Z,8.30
2023-01-29T15:12:56.177Z,8.10
2023-01-29T15:17:27.669Z,8.00
2023-01-29T15:21:33.847Z,8.10
2023-01-29T15:25:51.560Z,8.00
2023-01-29T15:30:00.235Z,8.00
2023-01-29T15:34:07.738Z,7.80
2023-01-29T15:38:19.779Z,7.80
2023-01-29T15:42:25.838Z,7.70
2023-01-29T15:46:33.756Z,7.60
2023-01-29T15:50:41.293Z,7.50
2023-01-29T15:54:44.514Z,7.40
2023-01-29T15:58:49.567Z,7.30
2023-01-29T16:02:52.472Z,7.30
2023-01-29T16:06:56.704Z,7.30
2023-01-29T16:11:03.329Z,7.20
2023-01-29T16:15:07.186Z,7.10
2023-01-29T16:19:24.095Z,7.00
2023-01-29T16:23:35.411Z,6.80
2023-01-29T16:27:38.585Z,6.70
2023-01-29T16:31:44.647Z,6.50
2023-01-29T16:35:52.116Z,6.30
2023-01-29T16:39:55.071Z,6.20
2023-01-29T16:44:25.832Z,6.10
2023-01-29T16:48:33.739Z,6.00
2023-01-29T16:52:36.955Z,5.90
2023-01-29T16:56:40.456Z,5.90
2023-01-29T17:01:14.598Z,5.80
2023-01-29T17:05:28.366Z,5.70
2023-01-29T17:09:40.503Z,5.60
2023-01-29T17:14:07.810Z,5.50
2023-01-29T17:18:31.352Z,5.20
2023-01-29T17:22:36.887Z,5.10
2023-01-29T17:26:40.682Z,5.00
2023-01-29T17:30:53.335Z,5.00
2023-01-29T17:35:00.558Z,5.00
2023-01-29T17:39:17.163Z,4.80
2023-01-29T17:43:20.147Z,4.60
2023-01-29T17:47:23.100Z,4.50
2023-01-29T17:51:26.276Z,4.40
2023-01-29T17:55:29.264Z,4.30
2023-01-29T17:59:34.166Z,4.10
2023-01-29T18:03:37.219Z,4.20
2023-01-29T18:07:42.722Z,4.10
2023-01-29T18:11:46.095Z,4.00
2023-01-29T18:15:49.069Z,4.00
2023-01-29T18:19:51.970Z,4.10
2023-01-29T18:23:55.117Z,4.00
2023-01-29T18:27:58.053Z,4.00
2023-01-29T18:32:08.203Z,3.90
2023-01-29T18:36:11.924Z,3.80
2023-01-29T18:40:19.310Z,3.80
2023-01-29T18:44:22.852Z,3.70
2023-01-29T18:48:26.036Z,3.60
2023-01-29T18:52:28.913Z,3.50
2023-01-29T18:56:33.274Z,3.50
2023-01-29T19:00:36.727Z,3.60
2023-01-29T19:04:40.302Z,3.60
2023-01-29T19:08:44.013Z,3.60
2023-01-29T19:12:46.826Z,3.60
2023-01-29T19:16:50.968Z,3.60
2023-01-29T19:20:54.404Z,3.60
2023-01-29T19:24:57.843Z,3.70
2023-01-29T19:29:03.920Z,3.70
2023-01-29T19:33:06.969Z,3.60
2023-01-29T19:37:09.714Z,3.50
2023-01-29T19:41:12.507Z,3.40
2023-01-29T19:45:15.981Z,3.40
2023-01-29T19:49:19.061Z,3.40
2023-01-29T19:53:23.561Z,3.30
2023-01-29T19:57:31.351Z,3.30
2023-01-29T20:01:34.675Z,3.20
2023-01-29T20:05:37.601Z,3.30
2023-01-29T20:09:41.537Z,3.30
2023-01-29T20:13:47.087Z,3.40
2023-01-29T20:17:50.261Z,3.50
2023-01-29T20:21:53.445Z,3.40
2023-01-29T20:26:00.631Z,3.40
2023-01-29T20:30:04.285Z,3.40
2023-01-29T20:34:11.266Z,3.40
2023-01-29T20:38:15.405Z,3.40
2023-01-29T20:42:27.595Z,3.30
2023-01-29T20:46:30.498Z,3.30
2023-01-29T20:50:34.600Z,3.20
2023-01-29T20:54:37.454Z,3.10
2023-01-29T20:58:43.680Z,3.00
2023-01-29T21:02:55.853Z,2.90
2023-01-29T21:07:07.283Z,2.90
2023-01-29T21:11:11.681Z,2.80
2023-01-29T21:15:20.643Z,2.60
2023-01-29T21:20:09.540Z,2.50
2023-01-29T21:24:31.267Z,2.40
2023-01-29T21:28:36.668Z,2.30
2023-01-29T21:32:39.555Z,2.10
2023-01-29T21:36:42.430Z,2.00
2023-01-29T21:40:45.250Z,1.90
2023-01-29T21:44:48.330Z,1.80
2023-01-29T21:48:51.651Z,1.80
2023-01-29T21:52:54.638Z,1.80
2023-01-29T21:56:57.593Z,1.70
2023-01-29T22:01:11.355Z,1.70
2023-01-29T22:05:23.709Z,1.60
2023-01-29T22:09:26.922Z,1.60
2023-01-29T22:13:30.095Z,1.60
2023-01-29T22:17:33.100Z,1.60
2023-01-29T22:33:10.435Z,1.40
2023-01-29T22:37:13.267Z,1.30
2023-01-29T22:41:18.997Z,1.30
2023-01-29T22:45:23.069Z,1.20
2023-01-29T22:49:30.090Z,1.10
2023-01-29T22:53:33.091Z,1.10
2023-01-29T22:57:38.884Z,1.10
2023-01-29T23:01:44.851Z,1.10
2023-01-29T23:05:51.020Z,1.10
2023-01-29T23:09:58.857Z,1.10
2023-01-29T23:14:05.360Z,1.00
2023-01-29T23:18:09.103Z,1.10
2023-01-29T23:22:14.180Z,1.10
2023-01-29T23:26:36.755Z,1.20
2023-01-29T23:30:40.067Z,1.20
2023-01-29T23:34:43.104Z,1.10
2023-01-29T23:38:46.063Z,1.10
2023-01-29T23:42:49.268Z,1.00
2023-01-29T23:46:52.269Z,1.00
2023-01-29T23:50:57.135Z,0.90
2023-01-29T23:55:05.758Z,0.90
2023-01-29T23:59:10.860Z,1.00
